Mesa.AZweather.com - Mesa, AZ
   Red Mountain Frwy and University Dr., El 1518 ft.
       --- Saturday  June 8, 2019 ---
 
 High Temperature ..  98F at 14:42
 Low Temperature ...  65F at 05:07
 
 High Humidity .....  34% at 05:19
 Low Humidity ......  9% at 15:27
 
 Rainfall Total ....  0.00 in.
 
 High Wind Speed ... ---
                     
 
 High Barometer ....  29.94 at 10:20
 Low Barometer .....  29.83 at 00:01
 
Dew Point    High .... 40   Low ..... 29
 
 
 Time   Temp  Humi  Rain     Baro  DewPt  Wind
00:00,  78F, 23%, 0.00 in, 29.84, 38F, ---
00:30,  75F, 24%, 0.00 in, 29.84, 36F, ---
01:00,  73F, 26%, 0.00 in, 29.84, 36F, ---
01:30,  71F, 27%, 0.00 in, 29.84, 36F, ---
02:00,  70F, 28%, 0.00 in, 29.84, 35F, ---
02:30,  70F, 29%, 0.00 in, 29.84, 36F, ---
03:00,  68F, 31%, 0.00 in, 29.84, 36F, ---
03:30,  67F, 33%, 0.00 in, 29.85, 36F, ---
04:00,  67F, 32%, 0.00 in, 29.86, 36F, ---
04:30,  66F, 32%, 0.00 in, 29.87, 36F, ---
05:00,  66F, 33%, 0.00 in, 29.87, 36F, ---
05:30,  65F, 34%, 0.00 in, 29.88, 35F, ---
06:00,  66F, 34%, 0.00 in, 29.89, 37F, ---
06:30,  69F, 33%, 0.00 in, 29.90, 39F, ---
07:00,  74F, 28%, 0.00 in, 29.90, 38F, ---
07:30,  78F, 23%, 0.00 in, 29.91, 38F, ---
08:00,  80F, 20%, 0.00 in, 29.91, 36F, ---
08:30,  83F, 18%, 0.00 in, 29.92, 35F, ---
09:00,  84F, 18%, 0.00 in, 29.92, 36F, ---
09:30,  86F, 17%, 0.00 in, 29.92, 36F, ---
10:00,  87F, 17%, 0.00 in, 29.92, 38F, ---
10:30,  89F, 16%, 0.00 in, 29.93, 38F, ---
11:00,  89F, 15%, 0.00 in, 29.93, 36F, ---
11:30,  91F, 14%, 0.00 in, 29.93, 36F, ---
12:00,  93F, 13%, 0.00 in, 29.93, 35F, ---
12:30,  93F, 13%, 0.00 in, 29.92, 35F, ---
13:00,  95F, 13%, 0.00 in, 29.92, 36F, ---
13:30,  96F, 12%, 0.00 in, 29.91, 36F, ---
14:00,  96F, 10%, 0.00 in, 29.90, 31F, ---
14:30,  97F, 10%, 0.00 in, 29.90, 31F, ---
15:00,  97F, 10%, 0.00 in, 29.89, 31F, ---
15:30,  97F, 10%, 0.00 in, 29.88, 31F, ---
16:00,  97F, 10%, 0.00 in, 29.87, 31F, ---
16:30,  97F, 10%, 0.00 in, 29.87, 31F, ---
17:00,  97F, 9%, 0.00 in, 29.87, 29F, ---
17:30,  96F, 10%, 0.00 in, 29.86, 31F, ---
18:00,  97F, 10%, 0.00 in, 29.86, 31F, ---
18:30,  95F, 10%, 0.00 in, 29.86, 30F, ---
19:00,  94F, 11%, 0.00 in, 29.87, 31F, ---
19:30,  91F, 13%, 0.00 in, 29.87, 34F, ---
20:00,  88F, 14%, 0.00 in, 29.88, 33F, ---
20:30,  85F, 16%, 0.00 in, 29.89, 33F, ---
21:00,  82F, 18%, 0.00 in, 29.90, 35F, ---
21:30,  79F, 20%, 0.00 in, 29.90, 34F, ---
22:00,  77F, 22%, 0.00 in, 29.91, 35F, ---
22:30,  76F, 22%, 0.00 in, 29.91, 34F, ---
23:00,  76F, 20%, 0.00 in, 29.90, 31F, ---
23:30,  76F, 21%, 0.00 in, 29.91, 33F, ---
23:59,  74F, 22%, 0.00 in, 29.90, 32F, ---